sensor_id;sensor_type;location;lat;lon;timestamp;pressure;altitude;pressure_sealevel;temperature;humidity
12973;BME280;6551;51.056;9.466;2022-09-17T00:00:41;96934.16;;;17.68;63.97
12973;BME280;6551;51.056;9.466;2022-09-17T00:03:08;96938.00;;;17.57;63.38
12973;BME280;6551;51.056;9.466;2022-09-17T00:05:35;96933.72;;;17.07;63.84
12973;BME280;6551;51.056;9.466;2022-09-17T00:08:06;96929.50;;;16.85;65.02
12973;BME280;6551;51.056;9.466;2022-09-17T00:10:37;96936.03;;;16.79;65.88
12973;BME280;6551;51.056;9.466;2022-09-17T00:13:05;96927.59;;;16.91;65.88
12973;BME280;6551;51.056;9.466;2022-09-17T00:15:31;96939.13;;;17.02;65.96
12973;BME280;6551;51.056;9.466;2022-09-17T00:17:57;96939.09;;;17.07;65.56
12973;BME280;6551;51.056;9.466;2022-09-17T00:20:24;96929.25;;;17.31;66.02
12973;BME280;6551;51.056;9.466;2022-09-17T00:22:51;96937.03;;;17.37;65.29
12973;BME280;6551;51.056;9.466;2022-09-17T00:25:18;96927.81;;;17.48;64.48
12973;BME280;6551;51.056;9.466;2022-09-17T00:27:44;96919.00;;;17.72;63.92
12973;BME280;6551;51.056;9.466;2022-09-17T00:30:11;96920.34;;;17.74;63.12
12973;BME280;6551;51.056;9.466;2022-09-17T00:32:37;96922.75;;;17.76;63.09
12973;BME280;6551;51.056;9.466;2022-09-17T00:35:03;96914.84;;;17.50;64.13
12973;BME280;6551;51.056;9.466;2022-09-17T00:37:28;96915.84;;;17.26;64.25
12973;BME280;6551;51.056;9.466;2022-09-17T00:39:54;96918.78;;;17.29;64.76
12973;BME280;6551;51.056;9.466;2022-09-17T00:42:21;96910.69;;;17.34;64.37
12973;BME280;6551;51.056;9.466;2022-09-17T00:44:53;96915.50;;;17.37;65.73
12973;BME280;6551;51.056;9.466;2022-09-17T00:50:22;96910.00;;;17.52;64.59
12973;BME280;6551;51.056;9.466;2022-09-17T00:53:01;96916.22;;;17.48;63.55
12973;BME280;6551;51.056;9.466;2022-09-17T00:55:37;96915.63;;;17.17;64.67
12973;BME280;6551;51.056;9.466;2022-09-17T00:58:07;96918.28;;;16.73;65.21
12973;BME280;6551;51.056;9.466;2022-09-17T01:00:34;96902.00;;;17.04;65.99
12973;BME280;6551;51.056;9.466;2022-09-17T01:03:00;96902.34;;;16.87;66.38
12973;BME280;6551;51.056;9.466;2022-09-17T01:08:49;96911.22;;;17.31;64.54
12973;BME280;6551;51.056;9.466;2022-09-17T01:32:21;96905.13;;;17.60;64.83
12973;BME280;6551;51.056;9.466;2022-09-17T01:38:19;96902.13;;;17.22;65.25
12973;BME280;6551;51.056;9.466;2022-09-17T01:41:20;96908.97;;;17.48;66.31
12973;BME280;6551;51.056;9.466;2022-09-17T01:44:06;96908.84;;;17.25;65.84
12973;BME280;6551;51.056;9.466;2022-09-17T01:47:15;96910.84;;;17.48;64.73
12973;BME280;6551;51.056;9.466;2022-09-17T01:49:43;96914.28;;;17.59;64.54
12973;BME280;6551;51.056;9.466;2022-09-17T01:52:12;96916.56;;;17.36;64.84
12973;BME280;6551;51.056;9.466;2022-09-17T01:54:44;96921.44;;;17.34;64.99
12973;BME280;6551;51.056;9.466;2022-09-17T01:57:35;96922.69;;;17.47;65.65
12973;BME280;6551;51.056;9.466;2022-09-17T02:00:12;96931.75;;;17.61;65.25
12973;BME280;6551;51.056;9.466;2022-09-17T02:03:01;96925.97;;;17.39;65.01
12973;BME280;6551;51.056;9.466;2022-09-17T02:05:44;96929.69;;;17.48;64.72
12973;BME280;6551;51.056;9.466;2022-09-17T02:08:25;96932.09;;;17.55;65.08
12973;BME280;6551;51.056;9.466;2022-09-17T02:10:59;96937.88;;;17.72;64.04
12973;BME280;6551;51.056;9.466;2022-09-17T02:13:44;96930.72;;;17.52;64.01
12973;BME280;6551;51.056;9.466;2022-09-17T02:16:26;96940.56;;;16.84;65.03
12973;BME280;6551;51.056;9.466;2022-09-17T02:21:53;96942.28;;;17.14;65.99
12973;BME280;6551;51.056;9.466;2022-09-17T02:28:53;96940.06;;;17.26;64.97
12973;BME280;6551;51.056;9.466;2022-09-17T02:31:00;96936.78;;;17.34;64.75
12973;BME280;6551;51.056;9.466;2022-09-17T02:33:27;96931.75;;;17.61;65.99
12973;BME280;6551;51.056;9.466;2022-09-17T02:35:54;96930.44;;;17.59;64.97
12973;BME280;6551;51.056;9.466;2022-09-17T02:38:29;96937.03;;;17.76;64.42
12973;BME280;6551;51.056;9.466;2022-09-17T02:41:26;96936.94;;;17.86;64.14
12973;BME280;6551;51.056;9.466;2022-09-17T02:44:25;96942.13;;;17.78;63.99
12973;BME280;6551;51.056;9.466;2022-09-17T02:47:31;96935.81;;;17.92;64.15
12973;BME280;6551;51.056;9.466;2022-09-17T02:50:20;96934.53;;;17.85;63.49
12973;BME280;6551;51.056;9.466;2022-09-17T02:59:25;96937.56;;;17.78;63.44
12973;BME280;6551;51.056;9.466;2022-09-17T03:04:37;96930.13;;;17.99;63.73
12973;BME280;6551;51.056;9.466;2022-09-17T03:07:08;96938.22;;;17.94;63.19
12973;BME280;6551;51.056;9.466;2022-09-17T03:09:36;96930.88;;;18.04;64.25
12973;BME280;6551;51.056;9.466;2022-09-17T03:12:02;96931.84;;;17.85;63.91
12973;BME280;6551;51.056;9.466;2022-09-17T03:14:29;96933.31;;;18.01;64.49
12973;BME280;6551;51.056;9.466;2022-09-17T03:16:55;96948.28;;;17.83;63.19
12973;BME280;6551;51.056;9.466;2022-09-17T03:19:20;96949.91;;;17.84;64.31
12973;BME280;6551;51.056;9.466;2022-09-17T03:21:46;96950.91;;;17.93;65.34
12973;BME280;6551;51.056;9.466;2022-09-17T03:24:12;96943.94;;;17.87;64.41
12973;BME280;6551;51.056;9.466;2022-09-17T03:26:38;96945.97;;;18.00;64.46
12973;BME280;6551;51.056;9.466;2022-09-17T03:29:04;96951.72;;;17.89;63.39
12973;BME280;6551;51.056;9.466;2022-09-17T03:31:30;96947.72;;;17.86;64.30
12973;BME280;6551;51.056;9.466;2022-09-17T03:33:56;96951.84;;;17.79;64.62
12973;BME280;6551;51.056;9.466;2022-09-17T03:36:23;96952.84;;;17.88;65.25
12973;BME280;6551;51.056;9.466;2022-09-17T03:38:54;96950.59;;;17.95;64.72
12973;BME280;6551;51.056;9.466;2022-09-17T03:41:20;96952.66;;;17.74;64.07
12973;BME280;6551;51.056;9.466;2022-09-17T03:43:46;96967.44;;;18.10;64.60
12973;BME280;6551;51.056;9.466;2022-09-17T03:46:11;96953.06;;;17.52;64.67
12973;BME280;6551;51.056;9.466;2022-09-17T03:48:37;96965.28;;;17.40;65.54
12973;BME280;6551;51.056;9.466;2022-09-17T03:51:04;96970.41;;;17.36;65.77
12973;BME280;6551;51.056;9.466;2022-09-17T03:53:31;96969.81;;;17.44;65.41
12973;BME280;6551;51.056;9.466;2022-09-17T03:56:02;96975.56;;;17.77;65.56
12973;BME280;6551;51.056;9.466;2022-09-17T03:58:30;96976.75;;;17.56;65.26
12973;BME280;6551;51.056;9.466;2022-09-17T04:00:56;96983.72;;;17.62;65.60
12973;BME280;6551;51.056;9.466;2022-09-17T04:03:24;96982.66;;;17.58;65.27
12973;BME280;6551;51.056;9.466;2022-09-17T04:05:50;96985.94;;;17.55;65.93
12973;BME280;6551;51.056;9.466;2022-09-17T04:08:16;96985.69;;;17.46;65.58
12973;BME280;6551;51.056;9.466;2022-09-17T04:10:43;96978.63;;;17.60;65.50
12973;BME280;6551;51.056;9.466;2022-09-17T04:13:12;96981.81;;;17.67;64.61
12973;BME280;6551;51.056;9.466;2022-09-17T04:15:38;96980.34;;;17.85;64.51
12973;BME280;6551;51.056;9.466;2022-09-17T04:18:04;96993.25;;;17.83;64.62
12973;BME280;6551;51.056;9.466;2022-09-17T04:20:30;96994.19;;;17.68;64.08
12973;BME280;6551;51.056;9.466;2022-09-17T04:22:56;96990.22;;;17.56;65.55
12973;BME280;6551;51.056;9.466;2022-09-17T04:25:22;96987.53;;;17.56;65.45
12973;BME280;6551;51.056;9.466;2022-09-17T04:27:48;96994.50;;;17.62;65.46
12973;BME280;6551;51.056;9.466;2022-09-17T04:30:14;96997.50;;;17.50;65.28
12973;BME280;6551;51.056;9.466;2022-09-17T04:32:43;96987.09;;;17.33;65.46
12973;BME280;6551;51.056;9.466;2022-09-17T04:35:10;96998.13;;;17.37;65.49
12973;BME280;6551;51.056;9.466;2022-09-17T04:37:35;97005.72;;;17.74;67.04
12973;BME280;6551;51.056;9.466;2022-09-17T04:40:02;97012.28;;;17.52;64.86
12973;BME280;6551;51.056;9.466;2022-09-17T04:42:28;97000.97;;;17.61;65.26
12973;BME280;6551;51.056;9.466;2022-09-17T04:44:53;97011.50;;;17.57;64.50
12973;BME280;6551;51.056;9.466;2022-09-17T04:47:19;97017.50;;;17.83;65.53
12973;BME280;6551;51.056;9.466;2022-09-17T04:49:45;97018.56;;;17.87;63.52
12973;BME280;6551;51.056;9.466;2022-09-17T04:52:10;97025.16;;;18.04;63.91
12973;BME280;6551;51.056;9.466;2022-09-17T04:54:36;97028.22;;;17.93;64.22
12973;BME280;6551;51.056;9.466;2022-09-17T04:57:02;97035.41;;;18.02;64.17
12973;BME280;6551;51.056;9.466;2022-09-17T04:59:27;97023.78;;;17.73;63.76
12973;BME280;6551;51.056;9.466;2022-09-17T05:01:53;97018.88;;;17.80;64.21
12973;BME280;6551;51.056;9.466;2022-09-17T05:04:19;97025.75;;;17.96;63.00
12973;BME280;6551;51.056;9.466;2022-09-17T05:06:45;97025.47;;;18.32;65.10
12973;BME280;6551;51.056;9.466;2022-09-17T05:09:11;97025.53;;;18.27;62.75
12973;BME280;6551;51.056;9.466;2022-09-17T05:11:37;97025.53;;;18.22;63.79
12973;BME280;6551;51.056;9.466;2022-09-17T05:14:03;97028.47;;;18.25;62.78
12973;BME280;6551;51.056;9.466;2022-09-17T05:16:28;97028.13;;;18.37;62.41
12973;BME280;6551;51.056;9.466;2022-09-17T05:18:54;97026.97;;;18.14;61.93
12973;BME280;6551;51.056;9.466;2022-09-17T05:21:22;97024.91;;;18.01;62.20
12973;BME280;6551;51.056;9.466;2022-09-17T05:23:48;97031.94;;;17.97;63.09
12973;BME280;6551;51.056;9.466;2022-09-17T05:26:14;97029.53;;;17.95;62.28
12973;BME280;6551;51.056;9.466;2022-09-17T05:28:40;97028.47;;;18.25;63.59
12973;BME280;6551;51.056;9.466;2022-09-17T05:31:06;97021.41;;;18.00;61.90
12973;BME280;6551;51.056;9.466;2022-09-17T05:33:32;97024.34;;;18.04;62.06
12973;BME280;6551;51.056;9.466;2022-09-17T05:35:58;97024.88;;;18.06;61.62
12973;BME280;6551;51.056;9.466;2022-09-17T05:38:24;97038.34;;;18.06;61.90
12973;BME280;6551;51.056;9.466;2022-09-17T05:40:50;97035.25;;;18.23;62.36
12973;BME280;6551;51.056;9.466;2022-09-17T05:43:16;97035.19;;;18.28;62.31
12973;BME280;6551;51.056;9.466;2022-09-17T05:45:42;97045.31;;;18.12;61.40
12973;BME280;6551;51.056;9.466;2022-09-17T05:48:13;97047.41;;;18.20;61.42
12973;BME280;6551;51.056;9.466;2022-09-17T05:50:40;97055.22;;;18.17;61.77
12973;BME280;6551;51.056;9.466;2022-09-17T05:53:10;97058.09;;;17.91;61.11
12973;BME280;6551;51.056;9.466;2022-09-17T05:55:38;97063.28;;;17.83;61.64
12973;BME280;6551;51.056;9.466;2022-09-17T05:58:15;97051.69;;;17.87;62.05
12973;BME280;6551;51.056;9.466;2022-09-17T06:00:42;97063.03;;;17.84;63.00
12973;BME280;6551;51.056;9.466;2022-09-17T06:03:11;97053.69;;;17.67;62.12
12973;BME280;6551;51.056;9.466;2022-09-17T06:05:37;97059.69;;;17.97;62.89
12973;BME280;6551;51.056;9.466;2022-09-17T06:08:03;97063.03;;;17.84;63.02
12973;BME280;6551;51.056;9.466;2022-09-17T06:10:28;97064.34;;;17.87;63.67
12973;BME280;6551;51.056;9.466;2022-09-17T06:12:56;97067.59;;;17.84;62.68
12973;BME280;6551;51.056;9.466;2022-09-17T06:15:22;97056.72;;;17.50;62.58
12973;BME280;6551;51.056;9.466;2022-09-17T06:17:47;97069.66;;;17.48;63.08
12973;BME280;6551;51.056;9.466;2022-09-17T06:20:13;97071.09;;;17.84;63.45
12973;BME280;6551;51.056;9.466;2022-09-17T06:22:41;97067.41;;;17.70;62.01
12973;BME280;6551;51.056;9.466;2022-09-17T06:25:07;97067.59;;;17.84;63.19
12973;BME280;6551;51.056;9.466;2022-09-17T06:27:34;97068.66;;;17.83;62.49
12973;BME280;6551;51.056;9.466;2022-09-17T06:30:00;97066.31;;;17.76;62.11
12973;BME280;6551;51.056;9.466;2022-09-17T06:32:27;97065.53;;;18.09;63.46
12973;BME280;6551;51.056;9.466;2022-09-17T06:34:53;97076.81;;;17.73;62.62
12973;BME280;6551;51.056;9.466;2022-09-17T06:37:26;97075.38;;;17.90;61.24
12973;BME280;6551;51.056;9.466;2022-09-17T06:39:52;97083.00;;;18.51;61.91
12973;BME280;6551;51.056;9.466;2022-09-17T06:42:18;97080.34;;;18.75;59.64
12973;BME280;6551;51.056;9.466;2022-09-17T06:44:43;97078.78;;;18.97;57.65
12973;BME280;6551;51.056;9.466;2022-09-17T06:47:09;97078.72;;;19.50;59.37
12973;BME280;6551;51.056;9.466;2022-09-17T06:49:35;97076.28;;;19.91;57.23
12973;BME280;6551;51.056;9.466;2022-09-17T06:52:00;97088.25;;;20.40;56.25
12973;BME280;6551;51.056;9.466;2022-09-17T06:54:26;97084.69;;;20.59;54.25
12973;BME280;6551;51.056;9.466;2022-09-17T06:56:52;97075.41;;;20.78;54.38
12973;BME280;6551;51.056;9.466;2022-09-17T06:59:17;97077.41;;;20.73;54.70
12973;BME280;6551;51.056;9.466;2022-09-17T07:01:43;97080.81;;;20.78;53.50
12973;BME280;6551;51.056;9.466;2022-09-17T07:04:09;97079.41;;;20.67;55.08
12973;BME280;6551;51.056;9.466;2022-09-17T07:06:34;97071.31;;;20.94;54.47
12973;BME280;6551;51.056;9.466;2022-09-17T07:09:00;97074.22;;;20.84;55.26
12973;BME280;6551;51.056;9.466;2022-09-17T07:11:28;97078.34;;;20.95;53.34
12973;BME280;6551;51.056;9.466;2022-09-17T07:13:53;97077.78;;;21.12;53.03
12973;BME280;6551;51.056;9.466;2022-09-17T07:16:20;97079.66;;;21.66;53.95
12973;BME280;6551;51.056;9.466;2022-09-17T07:18:45;97080.88;;;21.74;52.29
12973;BME280;6551;51.056;9.466;2022-09-17T07:21:11;97074.84;;;21.90;52.15
12973;BME280;6551;51.056;9.466;2022-09-17T07:23:40;97072.75;;;21.46;52.06
12973;BME280;6551;51.056;9.466;2022-09-17T07:26:11;97074.69;;;20.59;53.09
12973;BME280;6551;51.056;9.466;2022-09-17T07:28:39;97069.16;;;20.64;52.44
12973;BME280;6551;51.056;9.466;2022-09-17T07:31:06;97083.00;;;21.09;55.15
12973;BME280;6551;51.056;9.466;2022-09-17T07:33:34;97080.19;;;21.68;52.15
12973;BME280;6551;51.056;9.466;2022-09-17T07:36:04;97093.00;;;21.90;51.55
12973;BME280;6551;51.056;9.466;2022-09-17T07:38:30;97082.69;;;21.51;50.33
12973;BME280;6551;51.056;9.466;2022-09-17T07:41:06;97086.69;;;20.99;52.50
12973;BME280;6551;51.056;9.466;2022-09-17T07:43:34;97092.63;;;20.69;54.75
12973;BME280;6551;51.056;9.466;2022-09-17T07:46:02;97076.50;;;20.13;53.38
12973;BME280;6551;51.056;9.466;2022-09-17T07:48:29;97079.03;;;19.67;53.83
12973;BME280;6551;51.056;9.466;2022-09-17T07:50:55;97079.34;;;19.65;54.82
12973;BME280;6551;51.056;9.466;2022-09-17T07:53:22;97084.78;;;19.60;55.69
12973;BME280;6551;51.056;9.466;2022-09-17T07:55:58;97076.19;;;19.35;55.51
12973;BME280;6551;51.056;9.466;2022-09-17T07:58:30;97077.03;;;19.30;55.27
12973;BME280;6551;51.056;9.466;2022-09-17T08:01:04;97076.16;;;18.63;55.30
12973;BME280;6551;51.056;9.466;2022-09-17T08:03:30;97084.03;;;18.55;55.97
12973;BME280;6551;51.056;9.466;2022-09-17T08:06:12;97095.63;;;18.55;58.88
12973;BME280;6551;51.056;9.466;2022-09-17T08:08:39;97087.97;;;19.20;58.53
12973;BME280;6551;51.056;9.466;2022-09-17T08:11:14;97092.56;;;19.85;55.16
12973;BME280;6551;51.056;9.466;2022-09-17T08:13:41;97086.19;;;20.14;54.62
12973;BME280;6551;51.056;9.466;2022-09-17T08:16:11;97087.44;;;20.40;52.99
12973;BME280;6551;51.056;9.466;2022-09-17T08:18:41;97090.69;;;20.88;52.38
12973;BME280;6551;51.056;9.466;2022-09-17T08:21:11;97080.91;;;20.73;50.92
12973;BME280;6551;51.056;9.466;2022-09-17T08:23:40;97074.84;;;21.77;50.89
12973;BME280;6551;51.056;9.466;2022-09-17T08:26:12;97071.91;;;22.45;52.06
12973;BME280;6551;51.056;9.466;2022-09-17T08:28:38;97069.41;;;21.63;48.66
12973;BME280;6551;51.056;9.466;2022-09-17T08:31:07;97078.47;;;21.04;49.75
12973;BME280;6551;51.056;9.466;2022-09-17T08:33:36;97078.94;;;20.47;50.54
12973;BME280;6551;51.056;9.466;2022-09-17T08:36:04;97079.41;;;20.67;52.19
12973;BME280;6551;51.056;9.466;2022-09-17T08:38:32;97082.13;;;20.35;53.40
12973;BME280;6551;51.056;9.466;2022-09-17T08:46:59;97082.41;;;20.15;52.85
12973;BME280;6551;51.056;9.466;2022-09-17T08:57:59;97085.63;;;19.79;54.06
12973;BME280;6551;51.056;9.466;2022-09-17T09:00:40;97088.75;;;19.68;54.13
12973;BME280;6551;51.056;9.466;2022-09-17T09:03:41;97078.47;;;20.07;52.28
12973;BME280;6551;51.056;9.466;2022-09-17T09:06:14;97092.09;;;20.53;51.73
12973;BME280;6551;51.056;9.466;2022-09-17T09:08:57;97077.69;;;21.17;50.89
12973;BME280;6551;51.056;9.466;2022-09-17T09:11:27;97085.84;;;21.94;50.33
12973;BME280;6551;51.056;9.466;2022-09-17T09:14:17;97075.97;;;22.56;49.77
12973;BME280;6551;51.056;9.466;2022-09-17T09:16:44;97081.06;;;23.10;48.49
12973;BME280;6551;51.056;9.466;2022-09-17T09:22:01;97082.88;;;22.40;47.22
12973;BME280;6551;51.056;9.466;2022-09-17T09:24:44;97096.25;;;21.51;48.06
12973;BME280;6551;51.056;9.466;2022-09-17T09:27:27;97094.16;;;20.88;48.68
12973;BME280;6551;51.056;9.466;2022-09-17T09:30:11;97104.09;;;20.79;50.55
12973;BME280;6551;51.056;9.466;2022-09-17T09:33:14;97106.50;;;20.11;50.96
12973;BME280;6551;51.056;9.466;2022-09-17T09:35:43;97100.88;;;20.08;51.33
12973;BME280;6551;51.056;9.466;2022-09-17T09:38:42;97110.38;;;20.05;50.58
12973;BME280;6551;51.056;9.466;2022-09-17T09:41:16;97113.38;;;20.04;50.77
12973;BME280;6551;51.056;9.466;2022-09-17T09:43:46;97108.22;;;20.07;50.29
12973;BME280;6551;51.056;9.466;2022-09-17T09:55:03;97110.38;;;20.05;50.23
12973;BME280;6551;51.056;9.466;2022-09-17T09:57:51;97106.66;;;20.20;51.35
12973;BME280;6551;51.056;9.466;2022-09-17T10:00:34;97117.09;;;20.77;50.96
12973;BME280;6551;51.056;9.466;2022-09-17T10:03:24;97116.94;;;20.55;50.00
12973;BME280;6551;51.056;9.466;2022-09-17T10:06:04;97113.28;;;21.11;52.95
12973;BME280;6551;51.056;9.466;2022-09-17T10:08:36;97109.31;;;20.25;48.72
12973;BME280;6551;51.056;9.466;2022-09-17T10:13:38;97115.06;;;20.00;49.27
12973;BME280;6551;51.056;9.466;2022-09-17T10:16:25;97112.06;;;20.01;51.68
12973;BME280;6551;51.056;9.466;2022-09-17T10:21:38;97110.16;;;20.20;50.15
12973;BME280;6551;51.056;9.466;2022-09-17T10:24:29;97106.72;;;20.98;48.93
12973;BME280;6551;51.056;9.466;2022-09-17T10:27:14;97104.25;;;21.70;49.07
12973;BME280;6551;51.056;9.466;2022-09-17T10:29:46;97115.28;;;21.73;47.94
12973;BME280;6551;51.056;9.466;2022-09-17T10:32:19;97111.75;;;21.05;47.56
12973;BME280;6551;51.056;9.466;2022-09-17T10:35:24;97100.25;;;21.40;49.39
12973;BME280;6551;51.056;9.466;2022-09-17T10:37:52;97103.31;;;21.06;48.93
12973;BME280;6551;51.056;9.466;2022-09-17T10:43:14;97101.59;;;20.51;49.33
12973;BME280;6551;51.056;9.466;2022-09-17T10:45:41;97104.88;;;20.80;48.33
12973;BME280;6551;51.056;9.466;2022-09-17T10:48:16;97095.66;;;21.27;48.38
12973;BME280;6551;51.056;9.466;2022-09-17T10:50:54;97092.03;;;21.18;47.05
12973;BME280;6551;51.056;9.466;2022-09-17T10:53:21;97091.44;;;21.48;47.08
12973;BME280;6551;51.056;9.466;2022-09-17T10:59:04;97093.59;;;22.89;47.15
12973;BME280;6551;51.056;9.466;2022-09-17T11:02:08;97091.44;;;22.11;44.15
12973;BME280;6551;51.056;9.466;2022-09-17T11:08:19;97103.13;;;19.63;47.97
12973;BME280;6551;51.056;9.466;2022-09-17T11:11:16;97121.94;;;19.92;52.16
12973;BME280;6551;51.056;9.466;2022-09-17T11:14:13;97102.09;;;19.36;52.56
12973;BME280;6551;51.056;9.466;2022-09-17T11:16:56;97111.91;;;19.74;55.23
12973;BME280;6551;51.056;9.466;2022-09-17T11:19:40;97102.34;;;20.19;55.38
12973;BME280;6551;51.056;9.466;2022-09-17T11:25:31;97091.25;;;20.71;54.28
12973;BME280;6551;51.056;9.466;2022-09-17T11:34:25;97091.31;;;22.83;47.99
12973;BME280;6551;51.056;9.466;2022-09-17T11:39:56;97081.66;;;23.29;45.73
12973;BME280;6551;51.056;9.466;2022-09-17T11:42:32;97077.81;;;23.30;48.14
12973;BME280;6551;51.056;9.466;2022-09-17T11:48:12;97071.91;;;22.45;47.78
12973;BME280;6551;51.056;9.466;2022-09-17T11:53:32;97084.84;;;22.03;49.75
12973;BME280;6551;51.056;9.466;2022-09-17T11:56:57;97090.63;;;22.33;48.96
12973;BME280;6551;51.056;9.466;2022-09-17T11:59:55;97081.69;;;23.07;47.52
12973;BME280;6551;51.056;9.466;2022-09-17T12:05:35;97068.53;;;23.32;45.87
12973;BME280;6551;51.056;9.466;2022-09-17T12:08:44;97057.19;;;22.90;45.94
12973;BME280;6551;51.056;9.466;2022-09-17T12:11:33;97065.34;;;22.90;46.24
12973;BME280;6551;51.056;9.466;2022-09-17T12:14:25;97067.22;;;22.14;46.53
12973;BME280;6551;51.056;9.466;2022-09-17T12:16:58;97051.19;;;21.00;48.02
12973;BME280;6551;51.056;9.466;2022-09-17T12:19:39;97059.94;;;20.52;50.45
12973;BME280;6551;51.056;9.466;2022-09-17T12:22:29;97036.34;;;19.88;51.89
12973;BME280;6551;51.056;9.466;2022-09-17T12:24:57;97062.38;;;20.34;52.04
12973;BME280;6551;51.056;9.466;2022-09-17T12:27:38;97043.91;;;20.55;50.25
12973;BME280;6551;51.056;9.466;2022-09-17T12:30:23;97050.09;;;20.23;49.49
12973;BME280;6551;51.056;9.466;2022-09-17T12:33:15;97040.91;;;20.06;51.52
12973;BME280;6551;51.056;9.466;2022-09-17T12:36:18;97041.00;;;20.01;51.86
12973;BME280;6551;51.056;9.466;2022-09-17T12:41:57;97027.06;;;19.56;51.38
12973;BME280;6551;51.056;9.466;2022-09-17T12:44:59;97033.41;;;19.65;53.18
12973;BME280;6551;51.056;9.466;2022-09-17T12:51:29;97060.19;;;20.18;54.96
12973;BME280;6551;51.056;9.466;2022-09-17T12:56:56;97055.59;;;19.81;53.79
12973;BME280;6551;51.056;9.466;2022-09-17T12:59:33;97051.28;;;19.80;54.98
12973;BME280;6551;51.056;9.466;2022-09-17T13:02:14;97044.72;;;19.67;55.59
12973;BME280;6551;51.056;9.466;2022-09-17T13:19:03;97047.31;;;19.35;51.94
12973;BME280;6551;51.056;9.466;2022-09-17T13:21:58;97048.94;;;19.12;52.74
12973;BME280;6551;51.056;9.466;2022-09-17T13:24:27;97054.56;;;19.58;53.85
12973;BME280;6551;51.056;9.466;2022-09-17T13:26:55;97051.78;;;19.45;54.58
12973;BME280;6551;51.056;9.466;2022-09-17T13:40:30;97074.78;;;19.18;53.44
12973;BME280;6551;51.056;9.466;2022-09-17T13:45:27;97057.13;;;18.50;58.36
12973;BME280;6551;51.056;9.466;2022-09-17T13:48:07;97040.47;;;18.43;57.19
12973;BME280;6551;51.056;9.466;2022-09-17T13:50:39;97047.88;;;19.32;60.40
12973;BME280;6551;51.056;9.466;2022-09-17T13:55:54;97048.00;;;19.83;57.69
12973;BME280;6551;51.056;9.466;2022-09-17T13:58:28;97056.78;;;19.75;55.76
12973;BME280;6551;51.056;9.466;2022-09-17T14:04:04;97034.84;;;19.39;55.13
12973;BME280;6551;51.056;9.466;2022-09-17T14:08:58;97032.06;;;19.02;55.71
12973;BME280;6551;51.056;9.466;2022-09-17T14:30:21;97032.75;;;19.92;54.89
12973;BME280;6551;51.056;9.466;2022-09-17T14:33:17;97027.94;;;19.70;53.27
12973;BME280;6551;51.056;9.466;2022-09-17T14:35:49;97042.94;;;20.14;59.34
12973;BME280;6551;51.056;9.466;2022-09-17T14:44:06;97049.81;;;20.25;56.31
12973;BME280;6551;51.056;9.466;2022-09-17T14:46:59;97043.34;;;19.70;55.04
12973;BME280;6551;51.056;9.466;2022-09-17T14:49:29;97046.91;;;20.03;58.85
12973;BME280;6551;51.056;9.466;2022-09-17T14:51:57;97039.75;;;20.12;58.33
12973;BME280;6551;51.056;9.466;2022-09-17T14:54:27;97042.16;;;19.95;56.21
12973;BME280;6551;51.056;9.466;2022-09-17T14:57:26;97031.81;;;19.64;56.92
12973;BME280;6551;51.056;9.466;2022-09-17T14:59:56;97020.06;;;19.32;56.38
12973;BME280;6551;51.056;9.466;2022-09-17T15:02:38;97019.81;;;18.86;56.08
12973;BME280;6551;51.056;9.466;2022-09-17T15:05:22;97036.94;;;18.76;56.67
12973;BME280;6551;51.056;9.466;2022-09-17T15:07:49;97028.88;;;18.95;56.51
12973;BME280;6551;51.056;9.466;2022-09-17T15:10:21;97023.50;;;18.71;55.45
12973;BME280;6551;51.056;9.466;2022-09-17T15:12:48;97034.47;;;18.80;57.34
12973;BME280;6551;51.056;9.466;2022-09-17T15:15:19;97041.75;;;18.50;55.62
12973;BME280;6551;51.056;9.466;2022-09-17T15:17:47;97044.94;;;18.24;54.75
12973;BME280;6551;51.056;9.466;2022-09-17T15:20:20;97079.81;;;18.49;57.63
12973;BME280;6551;51.056;9.466;2022-09-17T15:25:30;97099.41;;;17.82;58.69
12973;BME280;6551;51.056;9.466;2022-09-17T15:27:58;97108.72;;;17.94;61.55
12973;BME280;6551;51.056;9.466;2022-09-17T15:30:25;97103.16;;;17.81;62.03
12973;BME280;6551;51.056;9.466;2022-09-17T15:32:58;97118.19;;;17.92;61.29
12973;BME280;6551;51.056;9.466;2022-09-17T15:35:30;97113.09;;;17.85;61.26
12973;BME280;6551;51.056;9.466;2022-09-17T15:38:03;97116.78;;;18.04;63.45
12973;BME280;6551;51.056;9.466;2022-09-17T15:40:43;97117.59;;;18.00;61.01
12973;BME280;6551;51.056;9.466;2022-09-17T15:43:24;97107.34;;;18.02;59.57
12973;BME280;6551;51.056;9.466;2022-09-17T15:45:52;97123.03;;;18.34;60.94
12973;BME280;6551;51.056;9.466;2022-09-17T15:50:55;97109.03;;;18.94;59.49
12973;BME280;6551;51.056;9.466;2022-09-17T16:06:57;97106.31;;;18.71;58.32
12973;BME280;6551;51.056;9.466;2022-09-17T16:09:50;97098.50;;;18.35;56.22
12973;BME280;6551;51.056;9.466;2022-09-17T16:12:23;97103.50;;;17.69;57.87
12973;BME280;6551;51.056;9.466;2022-09-17T16:14:52;97095.38;;;17.79;59.85
12973;BME280;6551;51.056;9.466;2022-09-17T16:17:28;97096.81;;;18.05;60.18
12973;BME280;6551;51.056;9.466;2022-09-17T16:19:55;97082.28;;;17.63;58.98
12973;BME280;6551;51.056;9.466;2022-09-17T16:22:21;97091.31;;;17.82;59.42
12973;BME280;6551;51.056;9.466;2022-09-17T16:24:47;97086.41;;;17.89;59.57
12973;BME280;6551;51.056;9.466;2022-09-17T16:27:21;97089.88;;;17.94;59.67
12973;BME280;6551;51.056;9.466;2022-09-17T16:29:49;97087.88;;;17.71;58.50
12973;BME280;6551;51.056;9.466;2022-09-17T16:32:16;97102.72;;;17.64;60.25
12973;BME280;6551;51.056;9.466;2022-09-17T16:34:42;97103.09;;;17.91;61.82
12973;BME280;6551;51.056;9.466;2022-09-17T16:37:09;97075.97;;;17.82;60.15
12973;BME280;6551;51.056;9.466;2022-09-17T16:39:35;97101.69;;;18.03;61.35
12973;BME280;6551;51.056;9.466;2022-09-17T16:42:01;97094.25;;;17.85;59.53
12973;BME280;6551;51.056;9.466;2022-09-17T16:44:27;97092.22;;;17.62;59.37
12973;BME280;6551;51.056;9.466;2022-09-17T16:46:52;97103.81;;;17.52;60.86
12973;BME280;6551;51.056;9.466;2022-09-17T16:49:18;97098.81;;;17.90;62.90
12973;BME280;6551;51.056;9.466;2022-09-17T16:51:44;97103.56;;;18.03;62.52
12973;BME280;6551;51.056;9.466;2022-09-17T16:54:09;97102.06;;;17.87;60.15
12973;BME280;6551;51.056;9.466;2022-09-17T16:56:35;97092.97;;;17.73;59.82